Terminal Aerodrome Forecast
Issued by NWS

Home | Current Version | Previous Version | Text Only | Print | Product List | Glossary On
Versions: 1 2 3 4 5 6 7 8 9 10 11 12 13
000
FTUS44 KTSA 141300 AAA
TAFFYV
TAF AMD
KFYV 141317Z 1413/1512 20004KT P6SM VCTS SCT050CB BKN150
      TEMPO 1413/1415 5SM -TSRA BKN040CB
     FM141500 27006KT P6SM BKN150
     FM150000 34005KT P6SM BKN250=

USA.gov is the U.S. government's official web portal to all federal, state and local government web resources and services.